createdAt,value
2022-10-14T00:00:26.213Z,6.62
2022-10-14T00:01:47.317Z,7.29
2022-10-14T00:03:08.837Z,6.19
2022-10-14T00:04:30.354Z,6.80
2022-10-14T00:05:52.956Z,6.93
2022-10-14T00:07:14.213Z,6.04
2022-10-14T00:08:35.699Z,7.02
2022-10-14T00:09:57.255Z,6.59
2022-10-14T00:12:31.356Z,6.81
2022-10-14T00:13:54.214Z,6.97
2022-10-14T00:15:15.905Z,7.04
2022-10-14T00:16:38.702Z,7.38
2022-10-14T00:17:59.983Z,7.37
2022-10-14T00:19:21.460Z,6.56
2022-10-14T00:20:42.381Z,7.26
2022-10-14T00:22:03.477Z,7.06
2022-10-14T00:23:24.664Z,7.46
2022-10-14T00:24:45.925Z,7.89
2022-10-14T00:26:07.063Z,6.93
2022-10-14T00:27:28.294Z,7.41
2022-10-14T00:28:49.889Z,7.43
2022-10-14T00:30:11.988Z,5.88
2022-10-14T00:31:33.263Z,7.29
2022-10-14T00:32:54.680Z,6.80
2022-10-14T00:34:15.667Z,7.97
2022-10-14T00:35:36.972Z,8.93
2022-10-14T00:36:58.820Z,7.38
2022-10-14T00:38:20.357Z,7.26
2022-10-14T00:39:41.803Z,7.12
2022-10-14T00:41:03.620Z,7.39
2022-10-14T00:42:24.697Z,7.37
2022-10-14T00:43:55.530Z,7.69
2022-10-14T00:45:19.754Z,8.95
2022-10-14T00:46:44.904Z,8.93
2022-10-14T00:48:06.095Z,7.49
2022-10-14T00:49:30.429Z,7.69
2022-10-14T00:50:54.559Z,8.83
2022-10-14T00:52:17.326Z,7.77
2022-10-14T00:53:38.829Z,7.46
2022-10-14T00:55:02.286Z,8.43
2022-10-14T00:56:24.848Z,8.49
2022-10-14T00:57:45.844Z,7.81
2022-10-14T00:59:07.377Z,8.28
2022-10-14T01:00:28.440Z,7.77
2022-10-14T01:01:49.728Z,7.76
2022-10-14T01:03:20.393Z,8.81
2022-10-14T01:04:41.672Z,8.63
2022-10-14T01:06:22.271Z,7.72
2022-10-14T01:09:42.261Z,7.91
2022-10-14T01:11:10.151Z,8.11
2022-10-14T01:12:47.327Z,7.61
2022-10-14T01:14:27.511Z,7.67
2022-10-14T01:17:20.151Z,5.87
2022-10-14T01:18:56.569Z,8.53
2022-10-14T01:20:39.419Z,7.31
2022-10-14T01:23:41.272Z,7.87
2022-10-14T01:25:11.933Z,9.34
2022-10-14T01:26:53.503Z,7.69
2022-10-14T01:28:21.194Z,7.06
2022-10-14T01:30:01.124Z,6.83
2022-10-14T01:31:23.452Z,7.44
2022-10-14T01:32:54.230Z,7.23
2022-10-14T01:34:19.081Z,6.86
2022-10-14T01:36:09.655Z,6.97
2022-10-14T01:37:31.115Z,7.12
2022-10-14T01:38:57.934Z,6.86
2022-10-14T01:40:23.066Z,7.49
2022-10-14T01:43:03.197Z,7.82
2022-10-14T01:44:24.728Z,11.33
2022-10-14T01:45:46.180Z,9.32
2022-10-14T01:47:07.649Z,9.57
2022-10-14T01:48:32.355Z,7.31
2022-10-14T01:50:08.918Z,7.56
2022-10-14T01:51:33.749Z,7.34
2022-10-14T01:53:01.432Z,7.66
2022-10-14T01:54:25.782Z,7.38
2022-10-14T01:55:46.904Z,7.66
2022-10-14T01:57:10.596Z,7.47
2022-10-14T01:58:31.951Z,7.68
2022-10-14T01:59:54.090Z,7.56
2022-10-14T02:01:15.450Z,7.50
2022-10-14T02:02:37.104Z,8.14
2022-10-14T02:03:58.740Z,8.16
2022-10-14T02:05:26.662Z,7.45
2022-10-14T02:08:04.544Z,7.08
2022-10-14T02:09:55.322Z,7.08
2022-10-14T02:11:17.215Z,7.28
2022-10-14T02:13:02.864Z,7.86
2022-10-14T02:16:07.537Z,7.42
2022-10-14T02:19:02.877Z,7.33
2022-10-14T02:21:53.330Z,5.76
2022-10-14T02:23:16.494Z,7.64
2022-10-14T02:24:40.302Z,7.71
2022-10-14T02:26:01.316Z,8.28
2022-10-14T02:27:24.251Z,8.19
2022-10-14T02:30:07.188Z,8.53
2022-10-14T02:31:28.181Z,8.58
2022-10-14T02:32:49.800Z,9.25
2022-10-14T02:34:11.459Z,9.70
2022-10-14T02:35:33.070Z,7.09
2022-10-14T02:36:55.266Z,9.66
2022-10-14T02:38:16.955Z,9.30
2022-10-14T02:39:40.603Z,8.91
2022-10-14T02:41:04.119Z,9.27
2022-10-14T02:42:25.747Z,8.87
2022-10-14T02:43:47.128Z,8.76
2022-10-14T02:45:09.246Z,8.74
2022-10-14T02:46:30.281Z,8.64
2022-10-14T02:47:51.365Z,8.34
2022-10-14T02:49:12.808Z,8.90
2022-10-14T02:50:33.773Z,8.20
2022-10-14T02:51:55.590Z,7.43
2022-10-14T02:53:16.884Z,8.15
2022-10-14T02:54:38.442Z,7.41
2022-10-14T02:55:59.732Z,8.07
2022-10-14T02:57:20.663Z,8.32
2022-10-14T02:58:42.124Z,7.58
2022-10-14T03:00:05.118Z,8.71
2022-10-14T03:01:26.084Z,7.80
2022-10-14T03:02:47.528Z,7.94
2022-10-14T03:04:08.885Z,7.35
2022-10-14T03:05:29.819Z,7.44
2022-10-14T03:06:51.342Z,7.67
2022-10-14T03:08:12.723Z,8.19
2022-10-14T03:09:33.654Z,8.56
2022-10-14T03:10:56.409Z,7.82
2022-10-14T03:12:18.009Z,11.22
2022-10-14T03:13:39.024Z,8.34
2022-10-14T03:15:00.527Z,7.71
2022-10-14T03:16:21.499Z,7.39
2022-10-14T03:17:42.753Z,7.60
2022-10-14T03:19:04.042Z,7.29
2022-10-14T03:20:25.593Z,8.16
2022-10-14T03:21:46.914Z,7.80
2022-10-14T03:23:08.345Z,8.05
2022-10-14T03:24:29.924Z,8.11
2022-10-14T03:25:53.537Z,7.31
2022-10-14T03:27:14.812Z,9.36
2022-10-14T03:28:36.299Z,8.07
2022-10-14T03:29:57.628Z,8.42
2022-10-14T03:31:19.238Z,18.88
2022-10-14T03:32:40.169Z,16.81
2022-10-14T03:34:01.155Z,11.57
2022-10-14T03:35:22.137Z,14.22
2022-10-14T03:36:43.431Z,16.47
2022-10-14T03:38:04.595Z,15.30
2022-10-14T03:39:25.603Z,23.38
2022-10-14T03:40:46.723Z,35.12
2022-10-14T03:42:08.232Z,47.89
2022-10-14T03:43:29.642Z,50.92
2022-10-14T03:44:50.893Z,18.41
2022-10-14T03:46:12.697Z,15.72
2022-10-14T03:47:33.653Z,40.69
2022-10-14T03:48:54.633Z,44.83
2022-10-14T03:50:16.155Z,28.46
2022-10-14T03:51:37.465Z,36.86
2022-10-14T03:52:58.411Z,32.05
2022-10-14T03:54:19.359Z,29.13
2022-10-14T03:55:40.388Z,16.49
2022-10-14T03:57:01.614Z,15.63
2022-10-14T03:58:23.203Z,14.47
2022-10-14T03:59:44.727Z,17.37
2022-10-14T04:01:05.630Z,27.32
2022-10-14T04:02:27.148Z,21.93
2022-10-14T04:03:48.596Z,28.08
2022-10-14T04:05:10.208Z,19.29
2022-10-14T04:06:31.510Z,12.26
2022-10-14T04:07:52.496Z,15.52
2022-10-14T04:09:13.522Z,11.71
2022-10-14T04:10:34.900Z,10.28
2022-10-14T04:11:57.806Z,11.71
2022-10-14T04:13:19.334Z,12.45
2022-10-14T04:14:40.825Z,10.48
2022-10-14T04:16:08.505Z,11.04
2022-10-14T04:17:30.020Z,9.74
2022-10-14T04:18:51.177Z,9.11
2022-10-14T04:20:12.779Z,9.01
2022-10-14T04:21:33.996Z,8.08
2022-10-14T04:22:58.747Z,10.51
2022-10-14T04:24:19.916Z,9.82
2022-10-14T04:25:41.424Z,11.07
2022-10-14T04:27:03.174Z,10.56
2022-10-14T04:28:24.658Z,13.01
2022-10-14T04:29:45.912Z,11.24
2022-10-14T04:31:06.955Z,11.99
2022-10-14T04:32:28.321Z,10.18
2022-10-14T04:33:49.720Z,13.88
2022-10-14T04:35:10.668Z,11.27
2022-10-14T04:36:31.613Z,9.81
2022-10-14T04:37:53.598Z,11.19
2022-10-14T04:39:16.317Z,10.96
2022-10-14T04:40:38.524Z,11.44
2022-10-14T04:41:59.957Z,8.97
2022-10-14T04:43:21.228Z,8.84
2022-10-14T04:44:42.608Z,8.55
2022-10-14T04:46:05.378Z,8.97
2022-10-14T04:47:26.382Z,8.84
2022-10-14T04:48:48.051Z,8.50
2022-10-14T04:50:11.892Z,8.61
2022-10-14T04:51:33.227Z,14.34
2022-10-14T04:52:54.649Z,26.02
2022-10-14T04:54:16.037Z,18.63
2022-10-14T04:55:37.497Z,13.74
2022-10-14T04:56:58.900Z,12.08
2022-10-14T04:58:20.128Z,22.62
2022-10-14T04:59:41.107Z,14.08
2022-10-14T05:01:02.200Z,21.87
2022-10-14T05:02:24.071Z,15.53
2022-10-14T05:03:45.629Z,20.94
2022-10-14T05:05:07.444Z,16.69
2022-10-14T05:06:28.586Z,12.94
2022-10-14T05:07:49.561Z,10.24
2022-10-14T05:09:10.523Z,13.32
2022-10-14T05:10:32.414Z,9.67
2022-10-14T05:11:53.685Z,12.49
2022-10-14T05:13:14.682Z,16.43
2022-10-14T05:14:35.621Z,12.46
2022-10-14T05:15:56.969Z,14.82
2022-10-14T05:17:18.381Z,28.57
2022-10-14T05:18:39.355Z,15.18
2022-10-14T05:20:00.538Z,12.71
2022-10-14T05:21:21.934Z,10.34
2022-10-14T05:22:44.253Z,9.21
2022-10-14T05:25:15.534Z,10.18
2022-10-14T05:26:37.090Z,16.44
2022-10-14T05:27:58.490Z,19.43
2022-10-14T05:29:20.110Z,12.57
2022-10-14T05:30:41.940Z,15.18
2022-10-14T05:32:03.310Z,26.69
2022-10-14T05:33:24.782Z,13.29
2022-10-14T05:34:46.118Z,18.16
2022-10-14T05:36:08.667Z,12.24
2022-10-14T05:37:30.134Z,12.47
2022-10-14T05:38:51.392Z,17.89
2022-10-14T05:40:13.141Z,11.09
2022-10-14T05:41:34.450Z,15.02
2022-10-14T05:42:56.135Z,11.87
2022-10-14T05:44:18.589Z,16.66
2022-10-14T05:45:40.008Z,15.65
2022-10-14T05:47:01.580Z,25.78
2022-10-14T05:48:23.247Z,19.04
2022-10-14T05:49:44.767Z,12.29
2022-10-14T05:51:06.351Z,12.94
2022-10-14T05:52:32.247Z,11.02
2022-10-14T05:53:51.747Z,10.42
2022-10-14T05:55:13.171Z,10.91
2022-10-14T05:56:34.304Z,9.42
2022-10-14T05:57:56.027Z,11.17
2022-10-14T05:59:17.176Z,11.69
2022-10-14T06:00:38.666Z,10.45
2022-10-14T06:02:00.636Z,13.64
2022-10-14T06:03:23.022Z,12.01
2022-10-14T06:04:44.412Z,10.90
2022-10-14T06:06:06.872Z,11.69
2022-10-14T06:07:27.915Z,12.85
2022-10-14T06:08:48.889Z,10.58
2022-10-14T06:10:10.797Z,10.29
2022-10-14T06:11:32.041Z,33.08
2022-10-14T06:12:55.385Z,17.01
2022-10-14T06:14:16.441Z,20.75
2022-10-14T06:15:37.855Z,12.35
2022-10-14T06:16:59.834Z,12.54
2022-10-14T06:18:21.237Z,9.21
2022-10-14T06:19:44.349Z,10.59
2022-10-14T06:21:05.943Z,11.74
2022-10-14T06:22:27.586Z,10.49
2022-10-14T06:23:48.758Z,9.41
2022-10-14T06:25:12.172Z,9.84
2022-10-14T06:27:55.676Z,10.14
2022-10-14T06:29:17.031Z,10.81
2022-10-14T06:30:39.969Z,10.57
2022-10-14T06:32:01.275Z,10.19
2022-10-14T06:33:22.605Z,11.05
2022-10-14T06:34:44.148Z,10.93
2022-10-14T06:36:06.262Z,10.40
2022-10-14T06:37:27.246Z,10.82
2022-10-14T06:38:48.228Z,10.45
2022-10-14T06:40:10.647Z,11.51
2022-10-14T06:41:31.944Z,12.41
2022-10-14T06:42:52.942Z,13.79
2022-10-14T06:44:13.921Z,14.42
2022-10-14T06:45:35.053Z,15.35
2022-10-14T06:46:57.723Z,16.17
2022-10-14T06:48:19.031Z,21.96
2022-10-14T06:49:41.985Z,37.12
2022-10-14T06:51:03.075Z,28.21
2022-10-14T06:52:24.654Z,44.29
2022-10-14T06:53:48.170Z,88.94
2022-10-14T06:55:09.269Z,92.94
2022-10-14T06:56:32.100Z,42.81
2022-10-14T06:59:15.822Z,45.01
2022-10-14T07:00:37.072Z,17.52
2022-10-14T07:01:58.761Z,38.44
2022-10-14T07:03:19.895Z,23.61
2022-10-14T07:04:41.470Z,44.46
2022-10-14T07:06:04.890Z,18.96
2022-10-14T07:07:26.183Z,12.17
2022-10-14T07:08:47.255Z,73.61
2022-10-14T07:10:09.134Z,28.48
2022-10-14T07:11:30.597Z,29.97
2022-10-14T07:14:10.833Z,15.80
2022-10-14T07:15:35.373Z,15.79
2022-10-14T07:16:57.219Z,13.13
2022-10-14T07:18:18.747Z,11.38
2022-10-14T07:19:39.871Z,14.70
2022-10-14T07:21:05.662Z,7.49
2022-10-14T07:22:28.913Z,11.92
2022-10-14T07:23:50.808Z,10.18
2022-10-14T07:25:12.424Z,10.70
2022-10-14T07:26:36.772Z,7.45
2022-10-14T07:28:00.481Z,11.07
2022-10-14T07:29:22.411Z,11.28
2022-10-14T07:30:45.575Z,9.88
2022-10-14T07:32:10.606Z,9.13
2022-10-14T07:34:58.733Z,9.96
2022-10-14T07:36:22.381Z,8.91
2022-10-14T07:37:44.766Z,11.28
2022-10-14T07:39:09.060Z,11.27
2022-10-14T07:40:30.210Z,10.79
2022-10-14T07:41:51.638Z,8.77
2022-10-14T07:43:13.091Z,8.51
2022-10-14T07:44:34.223Z,8.99
2022-10-14T07:45:56.092Z,11.03
2022-10-14T07:47:21.723Z,8.28
2022-10-14T07:48:56.680Z,10.67
2022-10-14T07:50:10.863Z,11.70
2022-10-14T07:52:55.725Z,11.21
2022-10-14T07:56:53.800Z,12.62
2022-10-14T07:58:15.354Z,11.07
2022-10-14T07:59:36.985Z,13.59
2022-10-14T08:00:59.753Z,12.48
2022-10-14T08:02:20.896Z,10.89
2022-10-14T08:03:43.805Z,10.26
2022-10-14T08:06:29.312Z,11.79
2022-10-14T08:07:50.609Z,13.47
2022-10-14T08:09:11.657Z,10.71
2022-10-14T08:10:34.097Z,11.57
2022-10-14T08:11:55.879Z,10.17
2022-10-14T08:13:17.365Z,11.28
2022-10-14T08:14:38.829Z,10.04
2022-10-14T08:16:00.530Z,8.89
2022-10-14T08:17:23.502Z,10.18
2022-10-14T08:20:07.415Z,9.33
2022-10-14T08:21:28.816Z,7.88
2022-10-14T08:22:50.469Z,9.64
2022-10-14T08:24:11.988Z,11.98
2022-10-14T08:25:35.245Z,10.97
2022-10-14T08:28:19.401Z,11.90
2022-10-14T08:29:40.805Z,9.92
2022-10-14T08:31:02.688Z,11.09
2022-10-14T08:32:25.491Z,13.11
2022-10-14T08:33:47.655Z,13.84
2022-10-14T08:35:09.455Z,10.51
2022-10-14T08:36:31.130Z,12.87
2022-10-14T08:37:59.054Z,11.02
2022-10-14T08:39:23.430Z,10.55
2022-10-14T08:41:15.823Z,10.94
2022-10-14T08:42:40.799Z,10.76
2022-10-14T08:45:37.034Z,10.39
2022-10-14T08:46:59.835Z,9.99
2022-10-14T08:48:23.500Z,11.22
2022-10-14T08:49:51.143Z,11.36
2022-10-14T08:52:42.314Z,11.54
2022-10-14T08:54:05.271Z,11.11
2022-10-14T08:56:54.919Z,8.93
2022-10-14T08:58:27.417Z,10.35
2022-10-14T08:59:48.590Z,9.41
2022-10-14T09:01:37.856Z,8.92
2022-10-14T09:02:59.303Z,7.23
2022-10-14T09:05:31.019Z,7.64
2022-10-14T09:06:52.866Z,7.24
2022-10-14T09:08:14.970Z,8.21
2022-10-14T09:09:41.443Z,9.26
2022-10-14T09:11:02.645Z,8.64
2022-10-14T09:12:30.474Z,8.10
2022-10-14T09:13:55.183Z,8.89
2022-10-14T09:15:27.320Z,9.26
2022-10-14T09:16:51.863Z,9.12
2022-10-14T09:18:21.687Z,8.41
2022-10-14T09:19:55.002Z,10.43
2022-10-14T09:21:53.551Z,9.87
2022-10-14T09:23:21.459Z,10.33
2022-10-14T09:24:43.517Z,8.46
2022-10-14T09:26:07.653Z,16.17
2022-10-14T09:27:29.060Z,15.90
2022-10-14T09:28:50.878Z,19.63
2022-10-14T09:30:14.046Z,11.89
2022-10-14T09:31:35.114Z,9.86
2022-10-14T09:32:56.549Z,10.12
2022-10-14T09:34:32.020Z,9.61
2022-10-14T09:35:55.197Z,12.92
2022-10-14T09:38:47.946Z,12.26
2022-10-14T09:40:16.475Z,13.39
2022-10-14T09:41:38.175Z,14.65
2022-10-14T09:43:09.408Z,11.69
2022-10-14T09:44:33.077Z,14.93
2022-10-14T09:46:01.714Z,11.87
2022-10-14T09:47:23.164Z,11.11
2022-10-14T09:48:50.737Z,11.27
2022-10-14T09:50:23.275Z,11.94
2022-10-14T09:51:44.691Z,9.51
2022-10-14T09:53:31.649Z,11.99
2022-10-14T09:54:54.978Z,10.91
2022-10-14T09:57:38.665Z,10.83
2022-10-14T09:59:00.335Z,11.01
2022-10-14T10:00:26.338Z,10.03
2022-10-14T10:03:05.033Z,10.00
2022-10-14T10:04:42.791Z,8.76
2022-10-14T10:06:08.264Z,9.55
2022-10-14T10:07:31.668Z,9.84
2022-10-14T10:08:55.821Z,9.20
2022-10-14T10:10:19.841Z,10.04
2022-10-14T10:11:41.240Z,9.91
2022-10-14T10:13:02.591Z,9.84
2022-10-14T10:14:26.874Z,10.08
2022-10-14T10:15:59.547Z,10.88
2022-10-14T10:17:21.213Z,9.73
2022-10-14T10:18:42.787Z,8.36
2022-10-14T10:20:17.434Z,8.56
2022-10-14T10:21:38.828Z,9.47
2022-10-14T10:23:07.832Z,28.83
2022-10-14T10:24:30.957Z,22.58
2022-10-14T10:25:54.330Z,15.22
2022-10-14T10:27:26.012Z,27.98
2022-10-14T10:28:48.143Z,30.23
2022-10-14T10:30:19.704Z,12.99
2022-10-14T10:31:50.515Z,24.28
2022-10-14T10:38:06.903Z,29.65
2022-10-14T10:41:24.977Z,13.84
2022-10-14T10:43:15.678Z,14.58
2022-10-14T10:44:46.958Z,15.82
2022-10-14T10:46:28.937Z,10.77
2022-10-14T10:49:16.986Z,27.82
2022-10-14T10:51:01.631Z,20.39
2022-10-14T10:52:32.628Z,24.52
2022-10-14T10:54:16.249Z,21.99
2022-10-14T10:55:57.093Z,20.33
2022-10-14T10:57:40.263Z,15.57
2022-10-14T10:59:34.047Z,14.93
2022-10-14T11:01:08.436Z,13.13
2022-10-14T11:02:50.311Z,13.87
2022-10-14T11:04:23.941Z,17.07
2022-10-14T11:06:00.050Z,14.35
2022-10-14T11:07:28.227Z,22.38
2022-10-14T11:10:16.655Z,11.38
2022-10-14T11:13:21.860Z,8.32
2022-10-14T11:15:02.141Z,8.86
2022-10-14T11:16:33.398Z,9.26
2022-10-14T11:18:19.576Z,11.66
2022-10-14T11:20:01.976Z,9.96
2022-10-14T11:21:51.332Z,8.36
2022-10-14T11:23:32.546Z,9.37
2022-10-14T11:25:03.202Z,10.48
2022-10-14T11:30:05.988Z,9.79
2022-10-14T11:31:34.190Z,10.14
2022-10-14T11:33:07.654Z,9.69
2022-10-14T11:34:59.488Z,9.04
2022-10-14T11:36:43.942Z,12.39
2022-10-14T11:38:11.791Z,10.89
2022-10-14T11:39:45.796Z,10.69
2022-10-14T11:41:28.917Z,11.67
2022-10-14T11:42:58.023Z,7.67
2022-10-14T11:47:35.109Z,10.74
2022-10-14T11:49:02.127Z,9.95
2022-10-14T11:50:25.687Z,10.74
2022-10-14T11:51:55.806Z,11.88
2022-10-14T11:54:39.825Z,12.34
2022-10-14T11:56:24.501Z,10.33
2022-10-14T11:59:21.275Z,8.36
2022-10-14T12:02:50.605Z,11.91
2022-10-14T12:06:07.987Z,14.36
2022-10-14T12:08:55.317Z,10.83
2022-10-14T12:11:36.542Z,13.65
2022-10-14T12:12:57.758Z,14.82
2022-10-14T12:14:39.696Z,12.78
2022-10-14T12:16:02.354Z,12.32
2022-10-14T12:17:35.834Z,16.52
2022-10-14T12:20:37.589Z,13.63
2022-10-14T12:22:23.474Z,14.02
2022-10-14T12:23:57.114Z,15.20
2022-10-14T12:25:20.813Z,13.04
2022-10-14T12:26:48.354Z,15.03
2022-10-14T12:28:10.232Z,13.07
2022-10-14T12:29:35.834Z,13.11
2022-10-14T12:32:33.079Z,14.12
2022-10-14T12:34:15.151Z,13.98
2022-10-14T12:35:52.758Z,15.32
2022-10-14T12:37:29.189Z,15.26
2022-10-14T12:39:10.061Z,15.06
2022-10-14T12:40:31.235Z,15.73
2022-10-14T12:42:02.224Z,15.20
2022-10-14T12:43:26.736Z,14.50
2022-10-14T12:44:54.058Z,13.61
2022-10-14T12:46:16.974Z,17.13
2022-10-14T12:47:38.361Z,24.78
2022-10-14T12:48:59.872Z,23.52
2022-10-14T12:52:01.403Z,15.94
2022-10-14T12:56:16.241Z,16.68
2022-10-14T12:57:40.061Z,15.13
2022-10-14T13:00:24.581Z,13.76
2022-10-14T13:01:50.831Z,14.77
2022-10-14T13:03:17.257Z,14.02
2022-10-14T13:04:42.525Z,14.80
2022-10-14T13:06:31.856Z,14.29
2022-10-14T13:09:35.141Z,15.55
2022-10-14T13:11:08.481Z,14.79
2022-10-14T13:13:54.709Z,12.94
2022-10-14T13:15:35.583Z,13.16
2022-10-14T13:16:58.841Z,13.24
2022-10-14T13:18:35.328Z,13.83
2022-10-14T13:19:59.078Z,13.66
2022-10-14T13:21:30.328Z,14.03
2022-10-14T13:22:51.505Z,14.76
2022-10-14T13:24:31.662Z,17.08
2022-10-14T13:25:58.889Z,14.94
2022-10-14T13:27:58.495Z,15.17
2022-10-14T13:29:41.529Z,14.31
2022-10-14T13:31:04.827Z,16.02
2022-10-14T13:32:31.793Z,13.66
2022-10-14T13:34:23.123Z,16.06
2022-10-14T13:35:55.202Z,14.87
2022-10-14T13:37:27.108Z,13.84
2022-10-14T13:39:06.537Z,14.44
2022-10-14T13:40:30.160Z,16.44
2022-10-14T13:43:30.733Z,13.52
2022-10-14T13:46:10.022Z,14.36
2022-10-14T13:47:31.293Z,14.06
2022-10-14T13:48:58.593Z,14.97
2022-10-14T13:50:21.927Z,14.13
2022-10-14T13:51:56.608Z,15.68
2022-10-14T13:53:22.873Z,16.48
2022-10-14T13:54:45.055Z,14.57
2022-10-14T13:57:48.219Z,15.47
2022-10-14T13:58:45.690Z,16.34
2022-10-14T14:01:43.406Z,13.97
2022-10-14T14:04:38.582Z,17.51
2022-10-14T14:05:59.956Z,15.46
2022-10-14T14:08:08.497Z,16.18
2022-10-14T14:08:51.547Z,15.27
2022-10-14T14:10:16.744Z,14.97
2022-10-14T14:11:38.337Z,16.64
2022-10-14T14:13:01.325Z,16.98
2022-10-14T14:15:50.040Z,24.31
2022-10-14T14:17:23.889Z,22.33
2022-10-14T14:18:56.307Z,15.45
2022-10-14T14:20:17.271Z,13.91
2022-10-14T14:21:39.044Z,12.77
2022-10-14T14:23:00.322Z,12.18
2022-10-14T14:24:23.738Z,12.89
2022-10-14T14:26:07.392Z,12.67
2022-10-14T14:27:14.241Z,12.96
2022-10-14T14:28:35.669Z,11.93
2022-10-14T14:29:59.102Z,13.33
2022-10-14T14:32:42.285Z,12.13
2022-10-14T14:35:26.600Z,11.98
2022-10-14T14:36:55.523Z,11.44
2022-10-14T14:38:29.323Z,11.47
2022-10-14T14:41:22.500Z,12.17
2022-10-14T14:42:44.271Z,12.57
2022-10-14T14:44:25.552Z,11.96
2022-10-14T14:46:48.690Z,13.13
2022-10-14T14:48:10.182Z,12.32
2022-10-14T14:49:32.739Z,12.43
2022-10-14T14:50:56.142Z,14.30
2022-10-14T14:53:40.516Z,13.56
2022-10-14T14:55:03.054Z,13.08
2022-10-14T14:57:55.880Z,11.99
2022-10-14T14:59:32.696Z,12.62
2022-10-14T15:00:55.392Z,12.40
2022-10-14T15:04:12.686Z,12.33
2022-10-14T15:05:23.087Z,13.80
2022-10-14T15:08:22.196Z,10.49
2022-10-14T15:11:01.875Z,13.49
2022-10-14T15:13:51.229Z,13.59
2022-10-14T15:16:45.254Z,14.32
2022-10-14T15:18:22.113Z,14.63
2022-10-14T15:19:45.642Z,20.26
2022-10-14T15:21:10.562Z,19.57
2022-10-14T15:22:38.674Z,22.26
2022-10-14T15:24:02.240Z,15.78
2022-10-14T15:25:26.814Z,21.21
2022-10-14T15:26:48.148Z,31.45
2022-10-14T15:28:13.423Z,21.91
2022-10-14T15:29:35.275Z,15.34
2022-10-14T15:31:00.110Z,12.66
2022-10-14T15:32:20.893Z,17.67
2022-10-14T15:33:43.075Z,12.20
2022-10-14T15:35:05.102Z,13.39
2022-10-14T15:36:33.817Z,12.67
2022-10-14T15:37:55.309Z,11.93
2022-10-14T15:39:16.701Z,14.58
2022-10-14T15:40:38.962Z,15.99
2022-10-14T15:42:00.365Z,14.32
2022-10-14T15:43:23.100Z,14.91
2022-10-14T15:44:44.477Z,18.67
2022-10-14T15:46:09.011Z,19.67
2022-10-14T15:47:30.400Z,23.39
2022-10-14T15:48:53.022Z,21.90
2022-10-14T15:50:17.546Z,18.24
2022-10-14T15:51:38.795Z,15.07
2022-10-14T15:53:00.322Z,15.82
2022-10-14T15:54:21.789Z,15.77
2022-10-14T15:55:42.986Z,17.17
2022-10-14T15:57:04.297Z,11.54
2022-10-14T15:58:25.948Z,16.27
2022-10-14T15:59:47.096Z,14.38
2022-10-14T16:01:09.359Z,13.74
2022-10-14T16:02:31.226Z,10.65
2022-10-14T16:03:53.527Z,19.66
2022-10-14T16:05:19.702Z,14.09
2022-10-14T16:06:38.648Z,12.55
2022-10-14T16:08:00.088Z,15.08
2022-10-14T16:09:21.852Z,12.69
2022-10-14T16:10:43.944Z,11.58
2022-10-14T16:12:05.656Z,8.44
2022-10-14T16:13:27.888Z,11.31
2022-10-14T16:14:49.296Z,9.91
2022-10-14T16:16:10.902Z,9.83
2022-10-14T16:17:34.253Z,10.69
2022-10-14T16:18:55.719Z,11.33
2022-10-14T16:20:17.176Z,11.49
2022-10-14T16:21:39.468Z,10.89
2022-10-14T16:23:00.666Z,10.56
2022-10-14T16:24:22.060Z,11.47
2022-10-14T16:25:45.372Z,11.89
2022-10-14T16:27:06.719Z,11.76
2022-10-14T16:28:28.518Z,13.02
2022-10-14T16:29:50.903Z,12.29
2022-10-14T16:31:14.368Z,11.86
2022-10-14T16:32:36.879Z,10.85
2022-10-14T16:33:59.661Z,11.54
2022-10-14T16:35:20.975Z,16.07
2022-10-14T16:36:43.243Z,17.75
2022-10-14T16:38:04.817Z,14.54
2022-10-14T16:39:26.392Z,13.59
2022-10-14T16:40:58.668Z,10.88
2022-10-14T16:42:20.134Z,13.03
2022-10-14T16:43:41.590Z,12.22
2022-10-14T16:45:04.118Z,13.29
2022-10-14T16:46:27.091Z,14.24
2022-10-14T16:47:48.390Z,13.12
2022-10-14T16:49:09.915Z,11.56
2022-10-14T16:50:31.322Z,11.59
2022-10-14T16:51:53.121Z,11.67
2022-10-14T16:53:14.547Z,13.39
2022-10-14T16:54:35.684Z,12.73
2022-10-14T16:55:57.622Z,14.29
2022-10-14T16:57:18.789Z,19.58
2022-10-14T16:58:40.303Z,16.84
2022-10-14T17:00:02.280Z,18.14
2022-10-14T17:01:24.304Z,12.30
2022-10-14T17:02:45.679Z,12.11
2022-10-14T17:04:07.342Z,18.83
2022-10-14T17:05:28.660Z,42.04
2022-10-14T17:06:50.254Z,23.27
2022-10-14T17:08:12.116Z,20.33
2022-10-14T17:09:36.420Z,21.09
2022-10-14T17:11:01.446Z,15.30
2022-10-14T17:12:25.236Z,13.07
2022-10-14T17:13:46.904Z,11.75
2022-10-14T17:15:08.873Z,9.64
2022-10-14T17:16:30.182Z,8.65
2022-10-14T17:17:52.516Z,8.06
2022-10-14T17:19:13.709Z,6.83
2022-10-14T17:20:35.400Z,9.13
2022-10-14T17:21:57.056Z,9.75
2022-10-14T17:23:18.616Z,9.81
2022-10-14T17:24:39.783Z,8.58
2022-10-14T17:26:03.072Z,9.45
2022-10-14T17:28:46.473Z,9.96
2022-10-14T17:30:09.243Z,9.01
2022-10-14T17:31:30.262Z,8.38
2022-10-14T17:32:52.823Z,9.07
2022-10-14T17:34:14.229Z,10.36
2022-10-14T17:35:35.677Z,16.65
2022-10-14T17:36:57.312Z,14.30
2022-10-14T17:38:18.887Z,13.06
2022-10-14T17:39:41.181Z,14.31
2022-10-14T17:41:05.945Z,21.84
2022-10-14T17:42:27.235Z,17.58
2022-10-14T17:43:50.380Z,12.46
2022-10-14T17:45:11.929Z,15.82
2022-10-14T17:46:33.266Z,17.39
2022-10-14T17:47:56.324Z,17.13
2022-10-14T17:49:17.300Z,11.06
2022-10-14T17:50:38.659Z,9.27
2022-10-14T17:52:01.215Z,10.56
2022-10-14T17:53:22.682Z,8.00
2022-10-14T17:54:44.172Z,7.73
2022-10-14T17:56:09.863Z,8.01
2022-10-14T17:57:30.931Z,8.45
2022-10-14T17:58:53.491Z,8.46
2022-10-14T18:00:15.361Z,8.21
2022-10-14T18:01:43.712Z,8.01
2022-10-14T18:02:59.661Z,10.02
2022-10-14T18:05:46.544Z,10.17
2022-10-14T18:07:05.266Z,11.84
2022-10-14T18:08:26.730Z,12.55
2022-10-14T18:09:48.430Z,19.40
2022-10-14T18:11:10.963Z,23.44
2022-10-14T18:13:57.765Z,11.82
2022-10-14T18:15:19.811Z,12.43
2022-10-14T18:16:42.344Z,10.56
2022-10-14T18:18:03.615Z,12.49
2022-10-14T18:19:24.698Z,8.98
2022-10-14T18:20:45.744Z,11.06
2022-10-14T18:22:07.226Z,10.89
2022-10-14T18:23:28.978Z,13.78
2022-10-14T18:24:50.348Z,15.76
2022-10-14T18:26:14.745Z,10.46
2022-10-14T18:27:35.906Z,12.79
2022-10-14T18:28:57.309Z,8.44
2022-10-14T18:30:18.591Z,10.97
2022-10-14T18:31:39.620Z,10.17
2022-10-14T18:33:01.979Z,7.56
2022-10-14T18:34:23.478Z,9.08
2022-10-14T18:35:48.578Z,7.64
2022-10-14T18:37:08.216Z,7.69
2022-10-14T18:38:29.755Z,7.68
2022-10-14T18:39:50.749Z,7.01
2022-10-14T18:41:13.305Z,6.55
2022-10-14T18:42:34.791Z,7.41
2022-10-14T18:43:56.185Z,7.37
2022-10-14T18:45:17.475Z,6.89
2022-10-14T18:46:39.685Z,7.43
2022-10-14T18:48:00.647Z,7.42
2022-10-14T18:49:22.309Z,6.50
2022-10-14T18:50:43.594Z,6.76
2022-10-14T18:52:05.009Z,6.77
2022-10-14T18:53:26.633Z,6.86
2022-10-14T18:54:48.770Z,6.45
2022-10-14T18:56:15.193Z,6.24
2022-10-14T18:57:36.271Z,6.68
2022-10-14T19:00:24.798Z,5.88
2022-10-14T19:01:46.510Z,6.64
2022-10-14T19:03:07.981Z,6.15
2022-10-14T19:04:29.222Z,6.53
2022-10-14T19:05:50.976Z,6.02
2022-10-14T19:07:12.406Z,6.26
2022-10-14T19:08:34.824Z,6.16
2022-10-14T19:09:57.896Z,7.46
2022-10-14T19:12:41.376Z,6.06
2022-10-14T19:14:03.491Z,6.25
2022-10-14T19:15:24.855Z,6.26
2022-10-14T19:16:46.211Z,5.69
2022-10-14T19:18:08.082Z,6.06
2022-10-14T19:19:29.237Z,5.71
2022-10-14T19:20:54.177Z,6.15
2022-10-14T19:22:15.618Z,6.48
2022-10-14T19:23:38.536Z,5.76
2022-10-14T19:24:59.591Z,5.53
2022-10-14T19:26:22.079Z,5.58
2022-10-14T19:27:43.302Z,5.56
2022-10-14T19:29:07.656Z,5.84
2022-10-14T19:30:28.474Z,5.28
2022-10-14T19:31:49.763Z,5.04
2022-10-14T19:33:10.999Z,5.24
2022-10-14T19:34:32.500Z,4.80
2022-10-14T19:36:00.351Z,5.38
2022-10-14T19:37:22.181Z,4.83
2022-10-14T19:40:00.608Z,5.71
2022-10-14T19:41:22.605Z,5.07
2022-10-14T19:42:43.758Z,4.87
2022-10-14T19:44:05.682Z,5.14
2022-10-14T19:45:26.879Z,5.27
2022-10-14T19:46:48.092Z,5.13
2022-10-14T19:48:09.247Z,5.22
2022-10-14T19:49:30.373Z,5.30
2022-10-14T19:50:53.764Z,5.06
2022-10-14T19:52:15.002Z,5.30
2022-10-14T19:53:37.799Z,4.78
2022-10-14T19:54:58.949Z,4.93
2022-10-14T19:56:20.271Z,4.33
2022-10-14T19:57:41.916Z,4.83
2022-10-14T19:59:03.968Z,4.69
2022-10-14T20:00:25.129Z,4.45
2022-10-14T20:01:46.532Z,5.36
2022-10-14T20:03:07.944Z,4.99
2022-10-14T20:04:29.664Z,4.97
2022-10-14T20:06:00.270Z,4.72
2022-10-14T20:07:22.148Z,5.14
2022-10-14T20:08:44.022Z,4.27
2022-10-14T20:10:06.271Z,4.86